sensor_id;sensor_type;location;lat;lon;timestamp;P1;durP1;ratioP1;P2;durP2;ratioP2
24145;SDS011;12308;50.948;4.706;2023-04-24T00:00:41;38.67;;;19.30;;
24145;SDS011;12308;50.948;4.706;2023-04-24T00:03:10;44.53;;;20.10;;
24145;SDS011;12308;50.948;4.706;2023-04-24T00:05:36;37.55;;;20.92;;
24145;SDS011;12308;50.948;4.706;2023-04-24T00:08:02;36.35;;;20.10;;
24145;SDS011;12308;50.948;4.706;2023-04-24T00:10:27;43.17;;;22.20;;
24145;SDS011;12308;50.948;4.706;2023-04-24T00:12:53;41.65;;;21.90;;
24145;SDS011;12308;50.948;4.706;2023-04-24T00:15:19;45.83;;;21.77;;
24145;SDS011;12308;50.948;4.706;2023-04-24T00:17:44;35.22;;;19.17;;
24145;SDS011;12308;50.948;4.706;2023-04-24T00:20:11;40.28;;;22.05;;
24145;SDS011;12308;50.948;4.706;2023-04-24T00:22:36;44.30;;;22.13;;
24145;SDS011;12308;50.948;4.706;2023-04-24T00:25:02;44.30;;;21.45;;
24145;SDS011;12308;50.948;4.706;2023-04-24T00:27:28;45.10;;;22.08;;
24145;SDS011;12308;50.948;4.706;2023-04-24T00:29:54;44.15;;;21.73;;
24145;SDS011;12308;50.948;4.706;2023-04-24T00:32:19;43.33;;;22.20;;
24145;SDS011;12308;50.948;4.706;2023-04-24T00:34:45;41.03;;;21.83;;
24145;SDS011;12308;50.948;4.706;2023-04-24T00:37:11;41.67;;;21.63;;
24145;SDS011;12308;50.948;4.706;2023-04-24T00:39:36;41.17;;;21.33;;
24145;SDS011;12308;50.948;4.706;2023-04-24T00:42:02;44.03;;;22.35;;
24145;SDS011;12308;50.948;4.706;2023-04-24T00:44:28;44.25;;;21.48;;
24145;SDS011;12308;50.948;4.706;2023-04-24T00:46:54;41.53;;;21.65;;
24145;SDS011;12308;50.948;4.706;2023-04-24T00:49:23;41.35;;;20.00;;
24145;SDS011;12308;50.948;4.706;2023-04-24T00:51:49;37.13;;;20.85;;
24145;SDS011;12308;50.948;4.706;2023-04-24T00:54:16;38.70;;;20.27;;
24145;SDS011;12308;50.948;4.706;2023-04-24T00:56:42;44.30;;;22.38;;
24145;SDS011;12308;50.948;4.706;2023-04-24T00:59:09;39.70;;;21.73;;
24145;SDS011;12308;50.948;4.706;2023-04-24T01:01:36;47.80;;;22.13;;
24145;SDS011;12308;50.948;4.706;2023-04-24T01:04:02;42.53;;;20.73;;
24145;SDS011;12308;50.948;4.706;2023-04-24T01:06:29;40.10;;;20.38;;
24145;SDS011;12308;50.948;4.706;2023-04-24T01:08:58;46.03;;;22.38;;
24145;SDS011;12308;50.948;4.706;2023-04-24T01:11:25;38.35;;;21.60;;
24145;SDS011;12308;50.948;4.706;2023-04-24T01:13:51;41.00;;;21.65;;
24145;SDS011;12308;50.948;4.706;2023-04-24T01:16:17;45.45;;;22.33;;
24145;SDS011;12308;50.948;4.706;2023-04-24T01:18:47;45.47;;;22.27;;
24145;SDS011;12308;50.948;4.706;2023-04-24T01:21:14;49.60;;;22.55;;
24145;SDS011;12308;50.948;4.706;2023-04-24T01:23:44;40.10;;;21.77;;
24145;SDS011;12308;50.948;4.706;2023-04-24T01:26:10;49.35;;;21.77;;
24145;SDS011;12308;50.948;4.706;2023-04-24T01:28:36;44.42;;;21.35;;
24145;SDS011;12308;50.948;4.706;2023-04-24T01:31:02;40.35;;;21.70;;
24145;SDS011;12308;50.948;4.706;2023-04-24T01:33:28;43.03;;;21.40;;
24145;SDS011;12308;50.948;4.706;2023-04-24T01:35:54;42.80;;;21.30;;
24145;SDS011;12308;50.948;4.706;2023-04-24T01:38:20;38.40;;;20.80;;
24145;SDS011;12308;50.948;4.706;2023-04-24T01:40:46;39.60;;;21.27;;
24145;SDS011;12308;50.948;4.706;2023-04-24T01:43:12;34.22;;;19.77;;
24145;SDS011;12308;50.948;4.706;2023-04-24T01:45:38;35.85;;;20.00;;
24145;SDS011;12308;50.948;4.706;2023-04-24T01:48:04;38.90;;;20.63;;
24145;SDS011;12308;50.948;4.706;2023-04-24T01:50:30;36.90;;;20.02;;
24145;SDS011;12308;50.948;4.706;2023-04-24T01:52:56;39.47;;;20.92;;
24145;SDS011;12308;50.948;4.706;2023-04-24T01:55:22;40.10;;;19.02;;
24145;SDS011;12308;50.948;4.706;2023-04-24T01:57:47;36.92;;;19.05;;
24145;SDS011;12308;50.948;4.706;2023-04-24T02:00:14;31.45;;;18.25;;
24145;SDS011;12308;50.948;4.706;2023-04-24T02:02:40;34.28;;;18.38;;
24145;SDS011;12308;50.948;4.706;2023-04-24T02:05:07;33.45;;;17.52;;
24145;SDS011;12308;50.948;4.706;2023-04-24T02:07:33;30.02;;;17.48;;
24145;SDS011;12308;50.948;4.706;2023-04-24T02:09:59;28.30;;;15.85;;
24145;SDS011;12308;50.948;4.706;2023-04-24T02:12:24;29.65;;;17.75;;
24145;SDS011;12308;50.948;4.706;2023-04-24T02:14:50;27.95;;;15.15;;
24145;SDS011;12308;50.948;4.706;2023-04-24T02:17:16;29.02;;;14.98;;
24145;SDS011;12308;50.948;4.706;2023-04-24T02:19:43;31.92;;;15.57;;
24145;SDS011;12308;50.948;4.706;2023-04-24T02:22:09;27.77;;;15.38;;
24145;SDS011;12308;50.948;4.706;2023-04-24T02:24:36;27.33;;;15.68;;
24145;SDS011;12308;50.948;4.706;2023-04-24T02:27:02;27.67;;;16.85;;
24145;SDS011;12308;50.948;4.706;2023-04-24T02:29:28;29.60;;;16.35;;
24145;SDS011;12308;50.948;4.706;2023-04-24T02:31:53;25.40;;;13.65;;
24145;SDS011;12308;50.948;4.706;2023-04-24T02:34:19;29.90;;;17.02;;
24145;SDS011;12308;50.948;4.706;2023-04-24T02:36:45;32.08;;;17.67;;
24145;SDS011;12308;50.948;4.706;2023-04-24T02:39:11;36.78;;;18.63;;
24145;SDS011;12308;50.948;4.706;2023-04-24T02:41:36;32.03;;;17.85;;
24145;SDS011;12308;50.948;4.706;2023-04-24T02:44:02;31.58;;;19.05;;
24145;SDS011;12308;50.948;4.706;2023-04-24T02:46:27;37.90;;;19.65;;
24145;SDS011;12308;50.948;4.706;2023-04-24T02:48:53;34.80;;;18.75;;
24145;SDS011;12308;50.948;4.706;2023-04-24T02:51:19;31.17;;;19.92;;
24145;SDS011;12308;50.948;4.706;2023-04-24T02:53:45;41.15;;;20.85;;
24145;SDS011;12308;50.948;4.706;2023-04-24T02:56:10;31.88;;;19.08;;
24145;SDS011;12308;50.948;4.706;2023-04-24T02:58:37;41.08;;;20.95;;
24145;SDS011;12308;50.948;4.706;2023-04-24T03:01:03;39.75;;;21.27;;
24145;SDS011;12308;50.948;4.706;2023-04-24T03:03:29;37.05;;;20.58;;
24145;SDS011;12308;50.948;4.706;2023-04-24T03:05:55;43.45;;;20.75;;
24145;SDS011;12308;50.948;4.706;2023-04-24T03:08:20;33.92;;;19.33;;
24145;SDS011;12308;50.948;4.706;2023-04-24T03:10:46;34.72;;;19.75;;
24145;SDS011;12308;50.948;4.706;2023-04-24T03:13:12;36.30;;;19.55;;
24145;SDS011;12308;50.948;4.706;2023-04-24T03:15:37;36.05;;;20.00;;
24145;SDS011;12308;50.948;4.706;2023-04-24T03:18:03;33.97;;;19.30;;
24145;SDS011;12308;50.948;4.706;2023-04-24T03:20:29;35.30;;;19.75;;
24145;SDS011;12308;50.948;4.706;2023-04-24T03:22:55;33.78;;;20.65;;
24145;SDS011;12308;50.948;4.706;2023-04-24T03:25:22;35.30;;;20.35;;
24145;SDS011;12308;50.948;4.706;2023-04-24T03:27:47;33.30;;;19.17;;
24145;SDS011;12308;50.948;4.706;2023-04-24T03:30:13;37.40;;;20.85;;
24145;SDS011;12308;50.948;4.706;2023-04-24T03:32:39;30.90;;;19.33;;
24145;SDS011;12308;50.948;4.706;2023-04-24T03:35:06;36.25;;;19.52;;
24145;SDS011;12308;50.948;4.706;2023-04-24T03:37:33;35.55;;;19.70;;
24145;SDS011;12308;50.948;4.706;2023-04-24T03:39:59;36.17;;;18.95;;
24145;SDS011;12308;50.948;4.706;2023-04-24T03:42:25;34.70;;;18.85;;
24145;SDS011;12308;50.948;4.706;2023-04-24T03:44:50;34.22;;;17.60;;
24145;SDS011;12308;50.948;4.706;2023-04-24T03:47:16;31.30;;;16.65;;
24145;SDS011;12308;50.948;4.706;2023-04-24T03:49:42;31.38;;;16.13;;
24145;SDS011;12308;50.948;4.706;2023-04-24T03:52:07;23.83;;;15.15;;
24145;SDS011;12308;50.948;4.706;2023-04-24T03:54:33;28.00;;;16.52;;
24145;SDS011;12308;50.948;4.706;2023-04-24T03:56:59;31.08;;;17.13;;
24145;SDS011;12308;50.948;4.706;2023-04-24T03:59:25;28.35;;;15.93;;
24145;SDS011;12308;50.948;4.706;2023-04-24T04:01:50;26.88;;;14.68;;
24145;SDS011;12308;50.948;4.706;2023-04-24T04:04:16;22.95;;;13.63;;
24145;SDS011;12308;50.948;4.706;2023-04-24T04:06:42;27.52;;;14.35;;
24145;SDS011;12308;50.948;4.706;2023-04-24T04:09:09;24.77;;;14.32;;
24145;SDS011;12308;50.948;4.706;2023-04-24T04:11:35;22.17;;;13.85;;
24145;SDS011;12308;50.948;4.706;2023-04-24T04:14:01;21.60;;;12.65;;
24145;SDS011;12308;50.948;4.706;2023-04-24T04:16:26;24.20;;;12.32;;
24145;SDS011;12308;50.948;4.706;2023-04-24T04:18:52;21.50;;;12.48;;
24145;SDS011;12308;50.948;4.706;2023-04-24T04:21:18;25.38;;;14.98;;
24145;SDS011;12308;50.948;4.706;2023-04-24T04:23:43;25.40;;;13.48;;
24145;SDS011;12308;50.948;4.706;2023-04-24T04:26:10;25.58;;;13.20;;
24145;SDS011;12308;50.948;4.706;2023-04-24T04:28:37;22.80;;;12.30;;
24145;SDS011;12308;50.948;4.706;2023-04-24T04:31:04;20.45;;;11.32;;
24145;SDS011;12308;50.948;4.706;2023-04-24T04:33:30;23.45;;;13.07;;
24145;SDS011;12308;50.948;4.706;2023-04-24T04:35:56;23.42;;;13.65;;
24145;SDS011;12308;50.948;4.706;2023-04-24T04:38:22;22.63;;;12.52;;
24145;SDS011;12308;50.948;4.706;2023-04-24T04:40:48;24.85;;;13.55;;
24145;SDS011;12308;50.948;4.706;2023-04-24T04:43:14;24.38;;;14.70;;
24145;SDS011;12308;50.948;4.706;2023-04-24T04:45:41;23.17;;;12.20;;
24145;SDS011;12308;50.948;4.706;2023-04-24T04:48:08;19.15;;;11.85;;
24145;SDS011;12308;50.948;4.706;2023-04-24T04:50:37;22.25;;;14.07;;
24145;SDS011;12308;50.948;4.706;2023-04-24T04:53:03;21.30;;;13.10;;
24145;SDS011;12308;50.948;4.706;2023-04-24T04:55:29;26.48;;;13.40;;
24145;SDS011;12308;50.948;4.706;2023-04-24T04:57:55;26.60;;;14.55;;
24145;SDS011;12308;50.948;4.706;2023-04-24T05:00:21;26.05;;;13.93;;
24145;SDS011;12308;50.948;4.706;2023-04-24T05:02:49;27.23;;;14.35;;
24145;SDS011;12308;50.948;4.706;2023-04-24T05:05:15;32.15;;;16.30;;
24145;SDS011;12308;50.948;4.706;2023-04-24T05:07:42;33.30;;;16.23;;
24145;SDS011;12308;50.948;4.706;2023-04-24T05:10:07;34.63;;;16.92;;
24145;SDS011;12308;50.948;4.706;2023-04-24T05:12:34;35.70;;;19.23;;
24145;SDS011;12308;50.948;4.706;2023-04-24T05:14:59;41.05;;;19.42;;
24145;SDS011;12308;50.948;4.706;2023-04-24T05:17:25;34.83;;;17.83;;
24145;SDS011;12308;50.948;4.706;2023-04-24T05:19:51;33.50;;;17.80;;
24145;SDS011;12308;50.948;4.706;2023-04-24T05:22:17;34.20;;;18.33;;
24145;SDS011;12308;50.948;4.706;2023-04-24T05:24:45;40.03;;;22.13;;
24145;SDS011;12308;50.948;4.706;2023-04-24T05:27:12;46.70;;;22.50;;
24145;SDS011;12308;50.948;4.706;2023-04-24T05:29:37;45.22;;;22.27;;
24145;SDS011;12308;50.948;4.706;2023-04-24T05:32:03;46.67;;;22.42;;
24145;SDS011;12308;50.948;4.706;2023-04-24T05:34:29;46.03;;;23.92;;
24145;SDS011;12308;50.948;4.706;2023-04-24T05:36:55;47.38;;;23.55;;
24145;SDS011;12308;50.948;4.706;2023-04-24T05:39:21;46.95;;;22.67;;
24145;SDS011;12308;50.948;4.706;2023-04-24T05:41:47;43.92;;;22.38;;
24145;SDS011;12308;50.948;4.706;2023-04-24T05:44:12;41.67;;;19.38;;
24145;SDS011;12308;50.948;4.706;2023-04-24T05:46:38;43.70;;;20.63;;
24145;SDS011;12308;50.948;4.706;2023-04-24T05:49:03;44.03;;;19.75;;
24145;SDS011;12308;50.948;4.706;2023-04-24T05:51:29;41.47;;;20.38;;
24145;SDS011;12308;50.948;4.706;2023-04-24T05:53:56;46.00;;;21.05;;
24145;SDS011;12308;50.948;4.706;2023-04-24T05:56:22;47.17;;;21.63;;
24145;SDS011;12308;50.948;4.706;2023-04-24T05:58:48;40.40;;;20.20;;
24145;SDS011;12308;50.948;4.706;2023-04-24T06:01:14;43.95;;;20.17;;
24145;SDS011;12308;50.948;4.706;2023-04-24T06:03:40;41.40;;;21.05;;
24145;SDS011;12308;50.948;4.706;2023-04-24T06:06:07;47.10;;;22.13;;
24145;SDS011;12308;50.948;4.706;2023-04-24T06:08:33;45.72;;;20.38;;
24145;SDS011;12308;50.948;4.706;2023-04-24T06:10:59;41.95;;;21.13;;
24145;SDS011;12308;50.948;4.706;2023-04-24T06:13:25;44.15;;;21.35;;
24145;SDS011;12308;50.948;4.706;2023-04-24T06:15:50;46.53;;;21.67;;
24145;SDS011;12308;50.948;4.706;2023-04-24T06:18:17;42.92;;;20.05;;
24145;SDS011;12308;50.948;4.706;2023-04-24T06:20:43;43.75;;;20.20;;
24145;SDS011;12308;50.948;4.706;2023-04-24T06:23:09;50.28;;;21.35;;
24145;SDS011;12308;50.948;4.706;2023-04-24T06:25:35;47.22;;;23.00;;
24145;SDS011;12308;50.948;4.706;2023-04-24T06:28:01;43.72;;;22.42;;
24145;SDS011;12308;50.948;4.706;2023-04-24T06:30:27;42.65;;;21.38;;
24145;SDS011;12308;50.948;4.706;2023-04-24T06:32:53;45.33;;;21.95;;
24145;SDS011;12308;50.948;4.706;2023-04-24T06:35:19;45.85;;;21.88;;
24145;SDS011;12308;50.948;4.706;2023-04-24T06:37:44;43.85;;;21.30;;
24145;SDS011;12308;50.948;4.706;2023-04-24T06:40:10;42.35;;;22.88;;
24145;SDS011;12308;50.948;4.706;2023-04-24T06:42:36;57.20;;;21.65;;
24145;SDS011;12308;50.948;4.706;2023-04-24T06:45:02;52.47;;;24.20;;
24145;SDS011;12308;50.948;4.706;2023-04-24T06:47:28;54.42;;;24.02;;
24145;SDS011;12308;50.948;4.706;2023-04-24T06:49:54;57.78;;;25.77;;
24145;SDS011;12308;50.948;4.706;2023-04-24T06:52:20;53.15;;;24.25;;
24145;SDS011;12308;50.948;4.706;2023-04-24T06:54:46;55.47;;;26.63;;
24145;SDS011;12308;50.948;4.706;2023-04-24T06:57:12;54.47;;;26.08;;
24145;SDS011;12308;50.948;4.706;2023-04-24T06:59:37;61.17;;;26.77;;
24145;SDS011;12308;50.948;4.706;2023-04-24T07:02:03;58.30;;;26.63;;
24145;SDS011;12308;50.948;4.706;2023-04-24T07:04:29;51.83;;;25.90;;
24145;SDS011;12308;50.948;4.706;2023-04-24T07:06:55;58.25;;;25.10;;
24145;SDS011;12308;50.948;4.706;2023-04-24T07:09:23;61.97;;;27.30;;
24145;SDS011;12308;50.948;4.706;2023-04-24T07:11:50;58.08;;;26.80;;
24145;SDS011;12308;50.948;4.706;2023-04-24T07:14:16;62.00;;;27.27;;
24145;SDS011;12308;50.948;4.706;2023-04-24T07:16:42;63.38;;;30.55;;
24145;SDS011;12308;50.948;4.706;2023-04-24T07:19:08;68.60;;;27.52;;
24145;SDS011;12308;50.948;4.706;2023-04-24T07:21:34;60.95;;;28.60;;
24145;SDS011;12308;50.948;4.706;2023-04-24T07:24:00;51.65;;;22.13;;
24145;SDS011;12308;50.948;4.706;2023-04-24T07:26:27;67.20;;;24.83;;
24145;SDS011;12308;50.948;4.706;2023-04-24T07:28:54;53.28;;;22.70;;
24145;SDS011;12308;50.948;4.706;2023-04-24T07:31:20;57.00;;;26.52;;
24145;SDS011;12308;50.948;4.706;2023-04-24T07:33:46;50.78;;;23.95;;
24145;SDS011;12308;50.948;4.706;2023-04-24T07:36:12;57.15;;;26.00;;
24145;SDS011;12308;50.948;4.706;2023-04-24T07:38:42;52.80;;;22.90;;
24145;SDS011;12308;50.948;4.706;2023-04-24T07:41:08;59.40;;;20.35;;
24145;SDS011;12308;50.948;4.706;2023-04-24T07:43:33;46.92;;;19.27;;
24145;SDS011;12308;50.948;4.706;2023-04-24T07:45:59;34.25;;;16.48;;
24145;SDS011;12308;50.948;4.706;2023-04-24T07:48:25;41.85;;;17.73;;
24145;SDS011;12308;50.948;4.706;2023-04-24T07:50:51;42.13;;;18.15;;
24145;SDS011;12308;50.948;4.706;2023-04-24T07:53:17;44.95;;;17.52;;
24145;SDS011;12308;50.948;4.706;2023-04-24T07:55:43;47.75;;;17.67;;
24145;SDS011;12308;50.948;4.706;2023-04-24T07:58:09;34.22;;;14.73;;
24145;SDS011;12308;50.948;4.706;2023-04-24T08:00:34;31.23;;;14.07;;
24145;SDS011;12308;50.948;4.706;2023-04-24T08:03:01;46.08;;;14.80;;
24145;SDS011;12308;50.948;4.706;2023-04-24T08:05:27;33.67;;;12.73;;
24145;SDS011;12308;50.948;4.706;2023-04-24T08:07:53;32.83;;;12.52;;
24145;SDS011;12308;50.948;4.706;2023-04-24T08:10:23;39.78;;;10.82;;
24145;SDS011;12308;50.948;4.706;2023-04-24T08:12:49;28.42;;;9.32;;
24145;SDS011;12308;50.948;4.706;2023-04-24T08:15:15;30.90;;;9.52;;
24145;SDS011;12308;50.948;4.706;2023-04-24T08:17:41;33.33;;;9.73;;
24145;SDS011;12308;50.948;4.706;2023-04-24T08:20:07;25.90;;;7.97;;
24145;SDS011;12308;50.948;4.706;2023-04-24T08:22:38;24.58;;;9.48;;
24145;SDS011;12308;50.948;4.706;2023-04-24T08:25:05;31.48;;;10.57;;
24145;SDS011;12308;50.948;4.706;2023-04-24T08:27:31;29.38;;;9.27;;
24145;SDS011;12308;50.948;4.706;2023-04-24T08:29:57;36.33;;;12.32;;
24145;SDS011;12308;50.948;4.706;2023-04-24T08:32:24;34.33;;;12.95;;
24145;SDS011;12308;50.948;4.706;2023-04-24T08:34:53;33.05;;;14.52;;
24145;SDS011;12308;50.948;4.706;2023-04-24T08:37:22;33.90;;;13.77;;
24145;SDS011;12308;50.948;4.706;2023-04-24T08:39:49;44.95;;;15.95;;
24145;SDS011;12308;50.948;4.706;2023-04-24T08:42:15;35.65;;;14.52;;
24145;SDS011;12308;50.948;4.706;2023-04-24T08:44:43;31.25;;;13.40;;
24145;SDS011;12308;50.948;4.706;2023-04-24T08:47:10;40.80;;;14.82;;
24145;SDS011;12308;50.948;4.706;2023-04-24T08:49:37;34.70;;;13.98;;
24145;SDS011;12308;50.948;4.706;2023-04-24T08:52:04;33.53;;;12.70;;
24145;SDS011;12308;50.948;4.706;2023-04-24T08:54:31;32.78;;;11.90;;
24145;SDS011;12308;50.948;4.706;2023-04-24T08:56:59;34.88;;;13.32;;
24145;SDS011;12308;50.948;4.706;2023-04-24T08:59:29;31.33;;;11.50;;
24145;SDS011;12308;50.948;4.706;2023-04-24T09:01:56;35.92;;;13.75;;
24145;SDS011;12308;50.948;4.706;2023-04-24T09:04:22;34.22;;;12.20;;
24145;SDS011;12308;50.948;4.706;2023-04-24T09:06:53;28.67;;;12.13;;
24145;SDS011;12308;50.948;4.706;2023-04-24T09:09:21;35.83;;;11.80;;
24145;SDS011;12308;50.948;4.706;2023-04-24T09:11:48;30.85;;;11.55;;
24145;SDS011;12308;50.948;4.706;2023-04-24T09:14:15;32.95;;;12.85;;
24145;SDS011;12308;50.948;4.706;2023-04-24T09:16:42;32.92;;;12.73;;
24145;SDS011;12308;50.948;4.706;2023-04-24T09:19:07;35.78;;;13.82;;
24145;SDS011;12308;50.948;4.706;2023-04-24T09:21:33;25.25;;;12.05;;
24145;SDS011;12308;50.948;4.706;2023-04-24T09:24:01;25.88;;;9.70;;
24145;SDS011;12308;50.948;4.706;2023-04-24T09:26:32;28.95;;;11.00;;
24145;SDS011;12308;50.948;4.706;2023-04-24T09:29:00;36.88;;;12.68;;
24145;SDS011;12308;50.948;4.706;2023-04-24T09:31:27;25.67;;;10.93;;
24145;SDS011;12308;50.948;4.706;2023-04-24T09:33:54;36.55;;;13.73;;
24145;SDS011;12308;50.948;4.706;2023-04-24T09:36:31;37.92;;;13.52;;
24145;SDS011;12308;50.948;4.706;2023-04-24T09:39:04;40.42;;;14.75;;
24145;SDS011;12308;50.948;4.706;2023-04-24T09:41:31;36.47;;;13.38;;
24145;SDS011;12308;50.948;4.706;2023-04-24T09:44:10;29.02;;;11.23;;
24145;SDS011;12308;50.948;4.706;2023-04-24T09:46:43;32.97;;;11.85;;
24145;SDS011;12308;50.948;4.706;2023-04-24T09:49:13;31.73;;;11.25;;
24145;SDS011;12308;50.948;4.706;2023-04-24T09:51:40;21.13;;;10.00;;
24145;SDS011;12308;50.948;4.706;2023-04-24T09:54:16;28.48;;;10.93;;
24145;SDS011;12308;50.948;4.706;2023-04-24T09:56:47;31.73;;;10.82;;
24145;SDS011;12308;50.948;4.706;2023-04-24T09:59:15;30.77;;;9.43;;
24145;SDS011;12308;50.948;4.706;2023-04-24T10:01:42;24.48;;;9.02;;
24145;SDS011;12308;50.948;4.706;2023-04-24T10:04:19;21.73;;;7.32;;
24145;SDS011;12308;50.948;4.706;2023-04-24T10:06:50;21.90;;;7.93;;
24145;SDS011;12308;50.948;4.706;2023-04-24T10:09:17;19.00;;;7.32;;
24145;SDS011;12308;50.948;4.706;2023-04-24T10:11:45;16.38;;;6.95;;
24145;SDS011;12308;50.948;4.706;2023-04-24T10:14:13;17.05;;;6.03;;
24145;SDS011;12308;50.948;4.706;2023-04-24T10:16:44;17.88;;;6.07;;
24145;SDS011;12308;50.948;4.706;2023-04-24T10:19:13;16.27;;;6.20;;
24145;SDS011;12308;50.948;4.706;2023-04-24T10:21:40;15.88;;;6.00;;
24145;SDS011;12308;50.948;4.706;2023-04-24T10:24:12;12.90;;;5.50;;
24145;SDS011;12308;50.948;4.706;2023-04-24T10:26:38;12.95;;;5.40;;
24145;SDS011;12308;50.948;4.706;2023-04-24T10:29:05;15.43;;;6.30;;
24145;SDS011;12308;50.948;4.706;2023-04-24T10:31:35;11.20;;;4.85;;
24145;SDS011;12308;50.948;4.706;2023-04-24T10:34:03;10.95;;;5.82;;
24145;SDS011;12308;50.948;4.706;2023-04-24T10:36:30;14.13;;;6.20;;
24145;SDS011;12308;50.948;4.706;2023-04-24T10:38:57;16.13;;;6.70;;
24145;SDS011;12308;50.948;4.706;2023-04-24T10:41:26;19.88;;;6.43;;
24145;SDS011;12308;50.948;4.706;2023-04-24T10:44:11;12.90;;;6.53;;
24145;SDS011;12308;50.948;4.706;2023-04-24T10:46:38;21.58;;;8.55;;
24145;SDS011;12308;50.948;4.706;2023-04-24T10:49:07;17.23;;;6.68;;
24145;SDS011;12308;50.948;4.706;2023-04-24T10:51:47;14.60;;;6.13;;
24145;SDS011;12308;50.948;4.706;2023-04-24T10:54:26;16.42;;;7.03;;
24145;SDS011;12308;50.948;4.706;2023-04-24T10:56:52;11.13;;;6.22;;
24145;SDS011;12308;50.948;4.706;2023-04-24T10:59:38;9.82;;;5.80;;
24145;SDS011;12308;50.948;4.706;2023-04-24T11:02:04;14.55;;;6.43;;
24145;SDS011;12308;50.948;4.706;2023-04-24T11:04:33;19.88;;;6.30;;
24145;SDS011;12308;50.948;4.706;2023-04-24T11:07:00;19.00;;;6.90;;
24145;SDS011;12308;50.948;4.706;2023-04-24T11:09:27;12.20;;;5.63;;
24145;SDS011;12308;50.948;4.706;2023-04-24T11:12:08;16.85;;;6.03;;
24145;SDS011;12308;50.948;4.706;2023-04-24T11:15:09;12.53;;;5.67;;
24145;SDS011;12308;50.948;4.706;2023-04-24T11:17:32;17.73;;;6.03;;
24145;SDS011;12308;50.948;4.706;2023-04-24T11:20:07;11.13;;;5.38;;
24145;SDS011;12308;50.948;4.706;2023-04-24T11:22:39;21.83;;;6.38;;
24145;SDS011;12308;50.948;4.706;2023-04-24T11:25:05;19.88;;;7.35;;
24145;SDS011;12308;50.948;4.706;2023-04-24T11:27:38;21.80;;;6.53;;
24145;SDS011;12308;50.948;4.706;2023-04-24T11:30:07;14.32;;;6.72;;
24145;SDS011;12308;50.948;4.706;2023-04-24T11:35:00;16.48;;;6.15;;
24145;SDS011;12308;50.948;4.706;2023-04-24T11:37:38;11.32;;;5.68;;
24145;SDS011;12308;50.948;4.706;2023-04-24T11:40:06;17.95;;;6.18;;
24145;SDS011;12308;50.948;4.706;2023-04-24T11:42:34;13.98;;;6.03;;
24145;SDS011;12308;50.948;4.706;2023-04-24T11:45:01;12.77;;;6.25;;
24145;SDS011;12308;50.948;4.706;2023-04-24T11:47:27;14.20;;;6.00;;
24145;SDS011;12308;50.948;4.706;2023-04-24T11:49:55;11.35;;;6.15;;
24145;SDS011;12308;50.948;4.706;2023-04-24T11:52:20;16.27;;;5.78;;
24145;SDS011;12308;50.948;4.706;2023-04-24T11:54:49;12.80;;;5.95;;
24145;SDS011;12308;50.948;4.706;2023-04-24T11:57:15;13.65;;;5.78;;
24145;SDS011;12308;50.948;4.706;2023-04-24T11:59:43;14.52;;;5.88;;
24145;SDS011;12308;50.948;4.706;2023-04-24T12:02:17;13.98;;;6.32;;
24145;SDS011;12308;50.948;4.706;2023-04-24T12:04:48;11.50;;;5.78;;
24145;SDS011;12308;50.948;4.706;2023-04-24T12:07:14;8.43;;;5.53;;
24145;SDS011;12308;50.948;4.706;2023-04-24T12:09:42;15.63;;;6.57;;
24145;SDS011;12308;50.948;4.706;2023-04-24T12:12:08;12.02;;;6.55;;
24145;SDS011;12308;50.948;4.706;2023-04-24T12:14:41;16.70;;;6.32;;
24145;SDS011;12308;50.948;4.706;2023-04-24T12:17:28;14.95;;;6.68;;
24145;SDS011;12308;50.948;4.706;2023-04-24T12:22:49;17.45;;;7.57;;
24145;SDS011;12308;50.948;4.706;2023-04-24T12:25:20;12.25;;;6.10;;
24145;SDS011;12308;50.948;4.706;2023-04-24T12:28:08;15.52;;;7.15;;
24145;SDS011;12308;50.948;4.706;2023-04-24T12:30:42;13.70;;;6.15;;
24145;SDS011;12308;50.948;4.706;2023-04-24T12:33:20;14.68;;;5.90;;
24145;SDS011;12308;50.948;4.706;2023-04-24T12:35:47;11.25;;;5.55;;
24145;SDS011;12308;50.948;4.706;2023-04-24T12:38:16;13.55;;;6.43;;
24145;SDS011;12308;50.948;4.706;2023-04-24T12:40:46;12.23;;;6.25;;
24145;SDS011;12308;50.948;4.706;2023-04-24T12:43:16;14.90;;;6.43;;
24145;SDS011;12308;50.948;4.706;2023-04-24T12:45:43;17.98;;;7.25;;
24145;SDS011;12308;50.948;4.706;2023-04-24T12:48:10;11.10;;;6.03;;
24145;SDS011;12308;50.948;4.706;2023-04-24T12:50:36;16.17;;;6.55;;
24145;SDS011;12308;50.948;4.706;2023-04-24T12:53:03;15.57;;;6.97;;
24145;SDS011;12308;50.948;4.706;2023-04-24T12:55:29;11.50;;;7.18;;
24145;SDS011;12308;50.948;4.706;2023-04-24T12:57:54;13.25;;;6.88;;
24145;SDS011;12308;50.948;4.706;2023-04-24T13:00:21;12.45;;;5.80;;
24145;SDS011;12308;50.948;4.706;2023-04-24T13:02:47;12.45;;;6.43;;
24145;SDS011;12308;50.948;4.706;2023-04-24T13:05:12;9.90;;;6.50;;
24145;SDS011;12308;50.948;4.706;2023-04-24T13:07:39;12.02;;;6.10;;
24145;SDS011;12308;50.948;4.706;2023-04-24T13:10:05;14.30;;;5.88;;
24145;SDS011;12308;50.948;4.706;2023-04-24T13:12:31;12.55;;;5.63;;
24145;SDS011;12308;50.948;4.706;2023-04-24T13:14:57;13.38;;;5.55;;
24145;SDS011;12308;50.948;4.706;2023-04-24T13:17:24;8.73;;;4.88;;
24145;SDS011;12308;50.948;4.706;2023-04-24T13:19:50;11.80;;;5.65;;
24145;SDS011;12308;50.948;4.706;2023-04-24T13:22:17;14.02;;;5.53;;
24145;SDS011;12308;50.948;4.706;2023-04-24T13:24:46;11.90;;;4.97;;
24145;SDS011;12308;50.948;4.706;2023-04-24T13:27:14;13.25;;;6.20;;
24145;SDS011;12308;50.948;4.706;2023-04-24T13:29:40;14.60;;;5.88;;
24145;SDS011;12308;50.948;4.706;2023-04-24T13:32:07;13.90;;;5.53;;
24145;SDS011;12308;50.948;4.706;2023-04-24T13:34:33;12.55;;;5.13;;
24145;SDS011;12308;50.948;4.706;2023-04-24T13:37:02;12.02;;;6.18;;
24145;SDS011;12308;50.948;4.706;2023-04-24T13:39:29;15.25;;;6.00;;
24145;SDS011;12308;50.948;4.706;2023-04-24T13:41:54;14.40;;;5.40;;
24145;SDS011;12308;50.948;4.706;2023-04-24T13:44:20;10.73;;;5.75;;
24145;SDS011;12308;50.948;4.706;2023-04-24T13:46:47;18.35;;;6.13;;
24145;SDS011;12308;50.948;4.706;2023-04-24T13:49:15;9.75;;;4.65;;
24145;SDS011;12308;50.948;4.706;2023-04-24T13:51:41;9.57;;;4.65;;
24145;SDS011;12308;50.948;4.706;2023-04-24T13:54:07;9.57;;;4.70;;
24145;SDS011;12308;50.948;4.706;2023-04-24T13:56:33;11.02;;;4.43;;
24145;SDS011;12308;50.948;4.706;2023-04-24T13:58:59;8.40;;;4.22;;
24145;SDS011;12308;50.948;4.706;2023-04-24T14:01:25;8.65;;;4.22;;
24145;SDS011;12308;50.948;4.706;2023-04-24T14:03:51;10.60;;;4.30;;
24145;SDS011;12308;50.948;4.706;2023-04-24T14:06:18;10.90;;;4.30;;
24145;SDS011;12308;50.948;4.706;2023-04-24T14:08:44;10.93;;;4.57;;
24145;SDS011;12308;50.948;4.706;2023-04-24T14:11:10;8.23;;;3.85;;
24145;SDS011;12308;50.948;4.706;2023-04-24T14:13:36;15.30;;;4.40;;
24145;SDS011;12308;50.948;4.706;2023-04-24T14:16:02;11.13;;;4.30;;
24145;SDS011;12308;50.948;4.706;2023-04-24T14:18:29;13.27;;;4.07;;
24145;SDS011;12308;50.948;4.706;2023-04-24T14:20:55;10.07;;;4.10;;
24145;SDS011;12308;50.948;4.706;2023-04-24T14:23:20;9.98;;;4.20;;
24145;SDS011;12308;50.948;4.706;2023-04-24T14:25:46;9.60;;;4.72;;
24145;SDS011;12308;50.948;4.706;2023-04-24T14:28:15;9.98;;;3.95;;
24145;SDS011;12308;50.948;4.706;2023-04-24T14:30:42;11.23;;;4.28;;